Time;durP1;ratioP1;P1;durP2;ratioP2;P2;SDS_P1;SDS_P2;PMS_P1;PMS_P2;Temp;Humidity;BMP_temperature;BMP_pressure;BME280_temperature;BME280_humidity;BME280_pressure;Samples;Min_cycle;Max_cycle;Signal;HPM_P1;HPM_P2
2023/04/25 05:00:15;;;;;;;4.77;3.70;;;9.70;97.20;;;;;;1740739;28;20171;-67
2023/04/25 05:01:07;;;;;;;4.93;4.28;;;9.80;97.20;;;;;;1740675;28;20204;-66
2023/04/25 05:01:58;;;;;;;5.40;4.80;;;9.80;97.20;;;;;;1740774;28;20219;-66
2023/04/25 05:02:49;;;;;;;4.82;4.43;;;9.80;97.20;;;;;;1740783;28;20199;-67
2023/04/25 05:03:41;;;;;;;4.13;3.80;;;9.80;97.20;;;;;;1740704;28;20199;-67
2023/04/25 05:04:31;;;;;;;5.55;4.28;;;9.80;97.20;;;;;;1740622;28;20207;-66
2023/04/25 05:05:23;;;;;;;5.23;4.27;;;9.80;97.20;;;;;;1740435;28;20206;-66
2023/04/25 05:06:14;;;;;;;4.50;3.70;;;9.80;97.20;;;;;;1740207;28;20299;-69
2023/04/25 05:07:05;;;;;;;5.70;4.10;;;9.90;97.20;;;;;;1740585;28;20694;-65
2023/04/25 05:07:56;;;;;;;6.15;3.67;;;9.90;97.20;;;;;;1740688;28;20702;-65
2023/04/25 05:08:48;;;;;;;4.00;3.60;;;9.90;97.20;;;;;;1740363;28;20537;-67
2023/04/25 05:09:39;;;;;;;3.70;3.40;;;9.90;97.20;;;;;;1739930;28;20258;-67
2023/04/25 05:10:31;;;;;;;4.57;3.87;;;9.90;97.20;;;;;;1740623;28;20219;-66
2023/04/25 05:11:23;;;;;;;3.90;3.13;;;10.00;97.20;;;;;;1741698;28;20446;-66
2023/04/25 05:12:14;;;;;;;5.78;3.45;;;10.00;97.20;;;;;;1742933;28;20213;-67
2023/04/25 05:13:05;;;;;;;4.55;3.72;;;10.00;97.20;;;;;;1742905;28;20205;-67
2023/04/25 05:13:57;;;;;;;3.80;3.50;;;10.00;97.20;;;;;;1743137;28;20199;-66
2023/04/25 05:14:47;;;;;;;4.70;3.80;;;10.00;97.20;;;;;;1743153;28;20203;-67
2023/04/25 05:15:40;;;;;;;4.23;3.67;;;10.10;97.20;;;;;;1742054;28;20192;-67
2023/04/25 05:16:31;;;;;;;3.88;3.58;;;10.10;97.20;;;;;;1742426;28;20214;-68
2023/04/25 05:17:23;;;;;;;3.73;3.43;;;10.10;97.20;;;;;;1742602;28;20203;-67
2023/04/25 05:18:13;;;;;;;4.10;3.50;;;10.10;97.20;;;;;;1742526;28;20202;-66
2023/04/25 05:19:05;;;;;;;4.70;4.10;;;10.10;97.20;;;;;;1742186;28;20195;-67
2023/04/25 05:19:56;;;;;;;4.28;3.90;;;10.10;97.20;;;;;;1742725;28;20194;-66
2023/04/25 05:20:48;;;;;;;3.47;3.13;;;10.10;97.20;;;;;;1743187;28;20219;-66
2023/04/25 05:21:38;;;;;;;5.53;3.97;;;10.20;97.20;;;;;;1743234;28;20202;-66
2023/04/25 05:22:30;;;;;;;3.40;3.10;;;10.10;97.20;;;;;;1743237;28;20201;-68
2023/04/25 05:23:21;;;;;;;5.35;3.53;;;10.10;97.20;;;;;;1742930;28;20206;-66
2023/04/25 05:24:12;;;;;;;3.27;2.97;;;10.10;97.20;;;;;;1742515;28;20198;-66
2023/04/25 05:25:04;;;;;;;3.67;3.33;;;10.10;97.20;;;;;;1743096;28;20199;-66
2023/04/25 05:25:56;;;;;;;5.13;3.22;;;10.10;97.20;;;;;;1743186;28;20206;-66
2023/04/25 05:26:46;;;;;;;4.63;3.63;;;10.10;97.20;;;;;;1742891;28;20230;-67
2023/04/25 05:27:38;;;;;;;3.60;3.30;;;10.10;97.20;;;;;;1743181;28;20208;-67
2023/04/25 05:28:29;;;;;;;4.43;3.95;;;10.10;97.20;;;;;;1743189;28;20210;-66
2023/04/25 05:29:21;;;;;;;7.17;3.83;;;10.10;97.20;;;;;;1742736;28;20193;-66
2023/04/25 05:30:12;;;;;;;6.78;3.67;;;10.10;97.20;;;;;;1743001;28;20452;-68
2023/04/25 05:31:05;;;;;;;4.83;3.90;;;10.00;97.20;;;;;;1743144;28;20190;-66
2023/04/25 05:31:55;;;;;;;4.85;3.75;;;10.00;97.20;;;;;;1743163;28;20456;-67
2023/04/25 05:32:48;;;;;;;4.40;3.40;;;10.00;97.20;;;;;;1743206;28;20199;-67
2023/04/25 05:33:38;;;;;;;3.63;3.33;;;10.10;97.20;;;;;;1743169;28;20666;-67
2023/04/25 05:34:30;;;;;;;3.33;3.10;;;10.10;97.20;;;;;;1743200;28;20662;-67
2023/04/25 05:35:21;;;;;;;3.28;2.97;;;10.10;97.20;;;;;;1743276;28;20202;-67
2023/04/25 05:36:12;;;;;;;4.20;3.37;;;10.10;97.20;;;;;;1743129;28;20195;-66
2023/04/25 05:37:03;;;;;;;4.40;3.90;;;10.10;97.20;;;;;;1743028;28;20199;-66
2023/04/25 05:37:55;;;;;;;5.30;3.70;;;10.10;97.20;;;;;;1743153;28;20205;-68
2023/04/25 05:38:45;;;;;;;4.95;3.45;;;10.10;97.20;;;;;;1743187;28;20207;-67
2023/04/25 05:39:37;;;;;;;4.73;3.67;;;10.10;97.20;;;;;;1743155;28;20202;-67
2023/04/25 05:40:28;;;;;;;7.85;3.70;;;10.10;97.20;;;;;;1743090;28;20239;-69
2023/04/25 05:41:20;;;;;;;4.63;3.70;;;10.10;97.20;;;;;;1743265;28;20202;-67
2023/04/25 05:42:10;;;;;;;4.82;3.55;;;10.10;97.20;;;;;;1743216;28;20905;-66
2023/04/25 05:43:02;;;;;;;3.60;3.30;;;10.10;97.20;;;;;;1742948;28;20533;-65
2023/04/25 05:43:53;;;;;;;3.83;3.53;;;10.10;97.20;;;;;;1743171;28;20195;-66
2023/04/25 05:44:45;;;;;;;5.97;4.40;;;10.20;97.20;;;;;;1743289;28;20278;-66
2023/04/25 05:45:36;;;;;;;4.07;3.67;;;10.20;97.20;;;;;;1743161;28;20202;-67
2023/04/25 05:46:29;;;;;;;4.27;3.30;;;10.20;97.20;;;;;;1742398;28;20205;-67
2023/04/25 05:47:20;;;;;;;4.22;3.78;;;10.20;97.20;;;;;;1742494;28;20582;-67
2023/04/25 05:48:11;;;;;;;5.30;3.57;;;10.20;97.20;;;;;;1742598;28;20570;-66
2023/04/25 05:49:02;;;;;;;4.90;3.70;;;10.20;97.20;;;;;;1743203;28;20445;-67
2023/04/25 05:49:54;;;;;;;4.17;3.77;;;10.20;97.20;;;;;;1743084;28;20254;-67
2023/04/25 05:50:44;;;;;;;4.57;4.20;;;10.20;97.20;;;;;;1743164;28;20225;-67
2023/04/25 05:51:36;;;;;;;4.60;3.67;;;10.20;97.20;;;;;;1743134;28;20198;-66
2023/04/25 05:52:27;;;;;;;4.50;3.95;;;10.20;97.20;;;;;;1743180;28;20214;-66
2023/04/25 05:53:19;;;;;;;4.87;3.77;;;10.20;97.20;;;;;;1743279;28;20205;-66
2023/04/25 05:54:09;;;;;;;6.32;3.65;;;10.20;97.20;;;;;;1743200;28;20199;-67
2023/04/25 05:55:01;;;;;;;3.93;3.53;;;10.20;97.20;;;;;;1743288;28;20203;-68
2023/04/25 05:55:52;;;;;;;4.35;3.92;;;10.30;97.20;;;;;;1743137;28;20210;-67
2023/04/25 05:56:44;;;;;;;4.30;3.53;;;10.30;97.20;;;;;;1742851;28;20199;-67
2023/04/25 05:57:35;;;;;;;8.00;4.07;;;10.30;97.20;;;;;;1742834;28;20675;-67
2023/04/25 05:58:26;;;;;;;4.23;3.83;;;10.30;97.20;;;;;;1743228;28;20592;-68
2023/04/25 05:59:17;;;;;;;4.28;3.83;;;10.30;97.20;;;;;;1743178;28;20480;-67
2023/04/25 06:00:10;;;;;;;6.27;4.10;;;10.30;97.20;;;;;;1743177;28;20203;-66
2023/04/25 06:01:02;;;;;;;4.15;3.78;;;10.30;97.20;;;;;;1743158;28;20329;-67
2023/04/25 06:01:55;;;;;;;4.90;4.10;;;10.30;97.20;;;;;;1743153;28;20745;-67
2023/04/25 06:02:46;;;;;;;7.88;4.20;;;10.30;97.20;;;;;;1743190;28;20577;-66
2023/04/25 06:03:38;;;;;;;7.93;4.30;;;10.30;97.20;;;;;;1743155;28;20540;-66
2023/04/25 06:04:28;;;;;;;4.40;4.00;;;10.30;97.20;;;;;;1743051;28;20207;-68
2023/04/25 06:05:21;;;;;;;4.43;4.03;;;10.40;97.20;;;;;;1743188;28;20227;-67
2023/04/25 06:06:12;;;;;;;6.38;3.80;;;10.40;97.20;;;;;;1742931;28;20593;-70
2023/04/25 06:07:04;;;;;;;18.20;4.90;;;10.40;97.20;;;;;;1742859;28;20282;-68
2023/04/25 06:07:54;;;;;;;7.05;4.10;;;10.40;97.20;;;;;;1743051;28;20556;-67
2023/04/25 06:08:46;;;;;;;4.67;4.20;;;10.40;97.20;;;;;;1743141;28;20244;-67
2023/04/25 06:09:38;;;;;;;5.05;3.88;;;10.50;97.20;;;;;;1743036;28;20202;-67
2023/04/25 06:10:30;;;;;;;3.50;3.20;;;10.50;97.20;;;;;;1743033;28;20569;-68
2023/04/25 06:11:21;;;;;;;4.43;3.97;;;10.60;97.20;;;;;;1743097;28;20581;-67
2023/04/25 06:12:13;;;;;;;6.00;3.90;;;10.70;97.20;;;;;;1742848;28;20594;-66
2023/04/25 06:13:04;;;;;;;4.72;3.60;;;10.80;97.20;;;;;;1743065;28;20445;-67
2023/04/25 06:13:56;;;;;;;6.65;4.35;;;10.80;97.20;;;;;;1743011;28;20241;-66
2023/04/25 06:14:47;;;;;;;4.95;4.55;;;10.90;97.20;;;;;;1743161;28;20203;-68
2023/04/25 06:15:39;;;;;;;4.38;3.97;;;11.00;97.20;;;;;;1743046;28;20199;-66
2023/04/25 06:16:29;;;;;;;4.35;3.95;;;11.10;97.20;;;;;;1742764;28;20210;-67
2023/04/25 06:17:22;;;;;;;9.43;4.10;;;11.20;97.20;;;;;;1742925;28;20285;-67
2023/04/25 06:18:13;;;;;;;6.35;4.20;;;11.20;97.20;;;;;;1742790;28;20233;-67
2023/04/25 06:19:05;;;;;;;5.23;3.87;;;11.30;97.20;;;;;;1743160;28;20202;-68
2023/04/25 06:19:56;;;;;;;4.28;3.88;;;11.40;97.20;;;;;;1743019;28;20203;-69
2023/04/25 06:20:47;;;;;;;5.87;4.17;;;11.50;97.20;;;;;;1743003;28;20214;-69
2023/04/25 06:21:38;;;;;;;5.43;4.40;;;11.50;97.20;;;;;;1742890;28;20689;-67
2023/04/25 06:22:30;;;;;;;4.07;3.67;;;11.50;97.20;;;;;;1742829;28;20568;-67
2023/04/25 06:23:20;;;;;;;5.57;3.63;;;11.60;97.20;;;;;;1741038;28;20226;-67
2023/04/25 06:24:12;;;;;;;5.37;3.90;;;11.60;97.20;;;;;;1742031;28;20195;-68
2023/04/25 06:25:04;;;;;;;4.32;3.60;;;11.70;97.20;;;;;;1742094;28;20195;-66
2023/04/25 06:25:56;;;;;;;7.55;4.35;;;11.70;97.20;;;;;;1741946;28;20207;-67
2023/04/25 06:26:47;;;;;;;4.55;4.15;;;11.70;97.20;;;;;;1741526;28;20584;-67
2023/04/25 06:27:39;;;;;;;4.63;4.13;;;11.70;97.20;;;;;;1742052;28;20199;-67
2023/04/25 06:28:29;;;;;;;4.22;3.83;;;11.70;97.20;;;;;;1741924;28;20696;-68
2023/04/25 06:29:21;;;;;;;4.80;3.63;;;11.70;97.20;;;;;;1741898;28;20672;-67
2023/04/25 06:30:12;;;;;;;6.00;4.20;;;11.70;97.20;;;;;;1741916;28;20219;-68
2023/04/25 06:31:04;;;;;;;4.73;4.10;;;11.70;97.20;;;;;;1748902;28;20282;-67
2023/04/25 06:31:55;;;;;;;4.47;4.05;;;11.70;97.20;;;;;;1748839;28;20448;-67
2023/04/25 06:32:48;;;;;;;4.80;3.40;;;11.70;97.20;;;;;;1748581;28;20665;-68
2023/04/25 06:33:39;;;;;;;4.35;4.05;;;11.60;97.20;;;;;;1748707;28;20452;-67
2023/04/25 06:34:30;;;;;;;4.43;4.03;;;11.60;97.20;;;;;;1748641;28;20197;-67
2023/04/25 06:35:21;;;;;;;4.32;3.70;;;11.60;97.20;;;;;;1748907;28;20198;-68
2023/04/25 06:36:13;;;;;;;4.90;4.30;;;11.60;97.20;;;;;;1748693;28;20199;-70
2023/04/25 06:37:04;;;;;;;4.40;4.10;;;11.60;97.20;;;;;;1748540;28;20203;-69
2023/04/25 06:37:55;;;;;;;4.43;3.90;;;11.60;97.20;;;;;;1748770;28;20205;-67
2023/04/25 06:38:46;;;;;;;4.05;3.75;;;11.50;97.20;;;;;;1748733;28;20483;-67
2023/04/25 06:39:38;;;;;;;4.83;4.30;;;11.50;97.20;;;;;;1748770;28;20199;-67
2023/04/25 06:40:29;;;;;;;3.90;3.60;;;11.50;97.20;;;;;;1748719;28;20621;-67
2023/04/25 06:41:21;;;;;;;5.17;3.70;;;11.40;97.20;;;;;;1748837;28;20458;-67
2023/04/25 06:42:11;;;;;;;4.47;4.07;;;11.40;97.20;;;;;;1748764;28;20210;-67
2023/04/25 06:43:03;;;;;;;4.43;4.03;;;11.40;97.20;;;;;;1748812;28;20206;-68
2023/04/25 06:43:54;;;;;;;3.90;3.50;;;11.30;97.20;;;;;;1748697;28;20198;-68
2023/04/25 06:44:45;;;;;;;4.37;3.97;;;11.30;97.20;;;;;;1748741;28;20194;-67
2023/04/25 06:45:36;;;;;;;4.43;4.00;;;11.30;97.20;;;;;;1748745;28;20217;-67
2023/04/25 06:46:28;;;;;;;4.60;3.77;;;11.20;97.20;;;;;;1748370;28;20203;-66
2023/04/25 06:47:18;;;;;;;3.97;3.67;;;11.20;97.20;;;;;;1748306;28;20194;-67
2023/04/25 06:48:11;;;;;;;4.30;3.80;;;11.20;97.20;;;;;;1748697;28;20198;-67
2023/04/25 06:49:02;;;;;;;4.75;4.35;;;11.20;97.20;;;;;;1748500;28;20205;-67
2023/04/25 06:49:54;;;;;;;4.57;4.17;;;11.20;97.20;;;;;;1748612;28;20199;-67
2023/04/25 06:50:45;;;;;;;6.00;4.25;;;11.20;97.20;;;;;;1748626;28;20237;-67
2023/04/25 06:51:37;;;;;;;10.45;4.32;;;11.10;97.20;;;;;;1748761;28;20202;-67
2023/04/25 06:52:27;;;;;;;4.70;4.30;;;11.10;97.20;;;;;;1748633;28;20711;-67
2023/04/25 06:53:22;;;;;;;4.50;4.10;;;11.10;97.20;;;;;;1748731;28;20198;-68
2023/04/25 06:54:13;;;;;;;4.78;4.38;;;11.10;97.20;;;;;;1748694;28;20214;-67
2023/04/25 06:55:05;;;;;;;4.77;4.27;;;11.10;97.20;;;;;;1748699;28;20195;-68
2023/04/25 06:55:56;;;;;;;4.45;4.00;;;11.10;97.20;;;;;;1748653;28;20214;-68
2023/04/25 06:56:48;;;;;;;4.90;4.50;;;11.10;97.20;;;;;;1748297;28;20204;-68
2023/04/25 06:57:38;;;;;;;4.30;3.90;;;11.10;97.20;;;;;;1748643;28;20233;-68
2023/04/25 06:58:30;;;;;;;5.00;4.60;;;11.10;97.20;;;;;;1748683;28;20205;-67
2023/04/25 06:59:21;;;;;;;4.18;3.88;;;11.10;97.20;;;;;;1748592;28;20210;-68
2023/04/25 07:00:14;;;;;;;5.03;4.57;;;11.00;97.20;;;;;;1748544;28;20195;-68
2023/04/25 07:01:05;;;;;;;4.60;4.20;;;11.00;97.20;;;;;;1748378;28;20198;-68
2023/04/25 07:01:56;;;;;;;4.87;4.43;;;11.00;97.20;;;;;;1748237;28;20201;-67
2023/04/25 07:02:47;;;;;;;3.58;3.28;;;11.00;97.20;;;;;;1748468;28;20452;-67
2023/04/25 07:03:40;;;;;;;4.87;4.37;;;11.00;97.20;;;;;;1748239;28;20197;-67
2023/04/25 07:04:31;;;;;;;5.10;4.22;;;11.00;97.20;;;;;;1748491;28;20594;-67
2023/04/25 07:05:23;;;;;;;4.07;3.77;;;11.00;97.20;;;;;;1748745;28;20221;-68
2023/04/25 07:06:13;;;;;;;4.40;3.78;;;10.90;97.20;;;;;;1748410;28;20449;-67
2023/04/25 07:07:05;;;;;;;3.50;3.20;;;10.90;97.20;;;;;;1748595;28;20728;-67
2023/04/25 07:07:56;;;;;;;3.95;3.40;;;10.90;97.20;;;;;;1748662;28;20681;-67
2023/04/25 07:08:48;;;;;;;3.57;3.27;;;10.90;97.20;;;;;;1748603;28;20677;-69
2023/04/25 07:09:38;;;;;;;4.45;3.80;;;10.90;97.20;;;;;;1748619;28;20233;-67
2023/04/25 07:10:30;;;;;;;4.03;3.63;;;10.90;97.20;;;;;;1748455;28;20225;-68
2023/04/25 07:11:21;;;;;;;4.30;3.95;;;10.90;97.20;;;;;;1748656;28;20734;-68
2023/04/25 07:12:13;;;;;;;4.67;3.63;;;10.90;97.20;;;;;;1748563;28;20670;-68
2023/04/25 07:13:04;;;;;;;3.85;3.50;;;10.80;97.20;;;;;;1748590;28;20217;-68
2023/04/25 07:13:55;;;;;;;3.45;3.17;;;10.80;97.20;;;;;;1748533;28;20206;-68
2023/04/25 07:14:47;;;;;;;4.00;3.40;;;10.80;97.20;;;;;;1748587;28;20212;-68
2023/04/25 07:15:37;;;;;;;3.88;3.58;;;10.80;97.20;;;;;;1748237;28;20213;-68
2023/04/25 07:16:29;;;;;;;3.83;3.53;;;10.80;97.20;;;;;;1748213;28;20194;-68
2023/04/25 07:17:20;;;;;;;3.58;3.28;;;10.80;97.20;;;;;;1748473;28;20202;-68
2023/04/25 07:18:12;;;;;;;4.20;3.80;;;10.80;97.20;;;;;;1748594;28;20222;-68
2023/04/25 07:19:04;;;;;;;4.25;3.47;;;10.80;97.20;;;;;;1748465;28;20226;-68
2023/04/25 07:19:56;;;;;;;3.35;3.15;;;10.80;97.20;;;;;;1748512;28;20339;-68
2023/04/25 07:20:46;;;;;;;3.30;3.08;;;10.80;97.20;;;;;;1748346;28;20218;-68
2023/04/25 07:21:38;;;;;;;3.27;2.97;;;10.80;97.20;;;;;;1748437;28;20204;-69
2023/04/25 07:22:29;;;;;;;4.25;3.90;;;10.90;97.20;;;;;;1748200;28;20202;-68
2023/04/25 07:23:21;;;;;;;3.97;3.67;;;10.90;97.20;;;;;;1748650;28;20194;-67
2023/04/25 07:24:12;;;;;;;3.78;3.45;;;10.90;97.20;;;;;;1748502;28;20206;-68
2023/04/25 07:25:04;;;;;;;3.90;3.60;;;10.90;97.20;;;;;;1748513;28;20198;-68
2023/04/25 07:25:55;;;;;;;3.95;3.65;;;10.90;97.20;;;;;;1748433;28;20661;-67
2023/04/25 07:26:47;;;;;;;5.25;3.78;;;10.90;97.20;;;;;;1748009;28;20208;-68
2023/04/25 07:27:38;;;;;;;4.18;3.80;;;10.90;97.20;;;;;;1748535;28;20581;-68
2023/04/25 07:28:31;;;;;;;5.05;4.55;;;10.90;97.20;;;;;;1748482;28;20234;-68
2023/04/25 07:29:21;;;;;;;3.83;3.45;;;10.90;97.20;;;;;;1748497;28;20195;-69
2023/04/25 07:30:14;;;;;;;3.37;3.07;;;10.90;97.20;;;;;;1747678;28;20193;-68
2023/04/25 07:31:05;;;;;;;4.32;3.67;;;10.90;97.20;;;;;;1741609;28;20199;-67
2023/04/25 07:31:56;;;;;;;4.07;3.78;;;11.00;97.20;;;;;;1741475;28;20234;-68
2023/04/25 07:32:47;;;;;;;4.03;3.72;;;11.00;97.20;;;;;;1741547;28;20230;-68
2023/04/25 07:33:39;;;;;;;4.10;3.80;;;11.00;97.20;;;;;;1741584;28;20655;-67
2023/04/25 07:34:31;;;;;;;4.00;3.70;;;11.00;97.20;;;;;;1741289;28;20510;-68
2023/04/25 07:35:23;;;;;;;4.63;4.22;;;11.00;97.20;;;;;;1741646;28;20668;-67
2023/04/25 07:36:15;;;;;;;4.38;3.97;;;11.00;97.20;;;;;;1741103;28;20203;-71
2023/04/25 07:37:06;;;;;;;4.60;4.18;;;11.10;97.20;;;;;;1741509;28;20241;-67
2023/04/25 07:37:58;;;;;;;3.70;3.40;;;11.10;97.20;;;;;;1741480;28;20618;-67
2023/04/25 07:38:50;;;;;;;4.45;4.05;;;11.10;97.20;;;;;;1741500;28;20716;-67
2023/04/25 07:39:41;;;;;;;4.05;3.65;;;11.10;97.20;;;;;;1741516;28;20206;-67
2023/04/25 07:40:33;;;;;;;4.35;3.95;;;11.10;97.20;;;;;;1741379;28;20251;-67
2023/04/25 07:41:24;;;;;;;4.05;3.75;;;11.10;97.20;;;;;;1741522;28;20214;-68
2023/04/25 07:42:16;;;;;;;3.80;3.50;;;11.10;97.20;;;;;;1741613;28;20206;-68
2023/04/25 07:43:07;;;;;;;3.80;3.50;;;11.10;97.20;;;;;;1741515;28;20214;-68
2023/04/25 07:43:58;;;;;;;4.00;3.70;;;11.20;97.20;;;;;;1741162;28;20199;-67
2023/04/25 07:44:51;;;;;;;4.93;4.22;;;11.20;97.20;;;;;;1741454;28;20226;-68
2023/04/25 07:45:43;;;;;;;3.95;3.63;;;11.20;97.20;;;;;;1741449;28;20279;-69
2023/04/25 07:46:34;;;;;;;4.57;4.18;;;11.20;97.20;;;;;;1741120;28;20659;-67
2023/04/25 07:47:25;;;;;;;3.97;3.67;;;11.20;97.20;;;;;;1741463;28;20582;-68
2023/04/25 07:48:18;;;;;;;4.57;3.78;;;11.20;97.20;;;;;;1741499;28;20827;-68
2023/04/25 07:49:10;;;;;;;4.30;4.00;;;11.20;97.20;;;;;;1741566;28;20195;-67
2023/04/25 07:50:02;;;;;;;4.70;3.67;;;11.20;97.20;;;;;;1741471;28;20203;-67
2023/04/25 07:50:54;;;;;;;4.90;4.40;;;11.20;97.20;;;;;;1741179;28;20326;-68
2023/04/25 07:51:45;;;;;;;4.43;4.03;;;11.10;97.20;;;;;;1741442;28;20211;-66
2023/04/25 07:52:36;;;;;;;4.17;3.77;;;11.20;97.20;;;;;;1741572;28;20206;-67
2023/04/25 07:53:27;;;;;;;4.80;4.35;;;11.20;97.20;;;;;;1741467;28;20685;-68
2023/04/25 07:54:19;;;;;;;4.87;3.57;;;11.20;97.20;;;;;;1741554;28;20746;-67
2023/04/25 07:55:09;;;;;;;4.47;4.07;;;11.20;97.20;;;;;;1741431;28;20203;-67
2023/04/25 07:56:01;;;;;;;4.40;4.00;;;11.20;97.20;;;;;;1741407;28;20192;-68
2023/04/25 07:56:52;;;;;;;3.80;3.50;;;11.30;97.20;;;;;;1741044;28;20206;-67
2023/04/25 07:57:44;;;;;;;6.93;4.40;;;11.30;97.20;;;;;;1741458;28;20213;-67
2023/04/25 07:58:34;;;;;;;4.63;4.20;;;11.30;97.20;;;;;;1741007;28;20228;-68
2023/04/25 07:59:26;;;;;;;4.33;4.03;;;11.30;97.20;;;;;;1741432;28;20685;-68
2023/04/25 08:00:17;;;;;;;4.35;4.05;;;11.30;97.20;;;;;;1741356;28;20575;-68
2023/04/25 08:01:09;;;;;;;4.80;4.00;;;11.30;97.20;;;;;;1741443;28;20247;-67
2023/04/25 08:02:00;;;;;;;4.43;4.03;;;11.30;97.20;;;;;;1741411;28;20219;-67
2023/04/25 08:02:52;;;;;;;6.80;4.13;;;11.30;97.20;;;;;;1741311;28;20207;-68
2023/04/25 08:03:42;;;;;;;4.60;4.20;;;11.30;97.20;;;;;;1741286;28;20452;-68
2023/04/25 08:04:34;;;;;;;5.07;4.57;;;11.30;97.20;;;;;;1741297;28;20203;-68
2023/04/25 08:05:26;;;;;;;5.20;4.13;;;11.30;97.20;;;;;;1741437;28;20789;-67
2023/04/25 08:06:18;;;;;;;4.28;3.97;;;11.30;97.20;;;;;;1740924;28;20203;-68
2023/04/25 08:07:09;;;;;;;4.80;4.38;;;11.30;97.20;;;;;;1741335;28;20723;-68
2023/04/25 08:08:02;;;;;;;4.63;4.23;;;11.30;97.20;;;;;;1741377;28;20603;-67
2023/04/25 08:08:52;;;;;;;4.93;4.53;;;11.20;97.20;;;;;;1741304;28;20457;-68
2023/04/25 08:09:44;;;;;;;4.90;4.40;;;11.20;97.20;;;;;;1741345;28;20282;-67
2023/04/25 08:10:35;;;;;;;4.47;4.07;;;11.20;97.20;;;;;;1741172;28;20223;-68
2023/04/25 08:11:26;;;;;;;5.13;4.00;;;11.20;97.20;;;;;;1741285;28;20683;-67
2023/04/25 08:12:17;;;;;;;4.47;4.00;;;11.20;97.20;;;;;;1741251;28;20210;-67
2023/04/25 08:13:09;;;;;;;4.73;4.33;;;11.20;97.20;;;;;;1741130;28;20198;-67
2023/04/25 08:14:00;;;;;;;4.22;3.92;;;11.10;97.20;;;;;;1741243;28;20196;-67
2023/04/25 08:14:51;;;;;;;4.70;4.20;;;11.10;97.20;;;;;;1741359;28;20213;-68
2023/04/25 08:15:42;;;;;;;5.50;4.30;;;11.10;97.20;;;;;;1741210;28;20249;-68
2023/04/25 08:16:34;;;;;;;4.50;4.00;;;11.10;97.20;;;;;;1740888;28;20203;-69
2023/04/25 08:17:25;;;;;;;4.88;4.47;;;11.10;97.20;;;;;;1741262;28;20226;-68
2023/04/25 08:18:17;;;;;;;4.77;4.37;;;11.00;97.20;;;;;;1741237;28;20202;-68
2023/04/25 08:19:07;;;;;;;4.85;4.25;;;11.00;97.20;;;;;;1741262;28;20199;-68
2023/04/25 08:19:59;;;;;;;6.03;5.03;;;11.00;97.20;;;;;;1741222;28;20217;-68
2023/04/25 08:20:51;;;;;;;4.78;4.38;;;11.00;97.20;;;;;;1741170;28;20711;-67
2023/04/25 08:21:43;;;;;;;4.50;4.10;;;11.00;97.20;;;;;;1741306;28;20289;-68
2023/04/25 08:22:34;;;;;;;4.70;4.20;;;11.00;97.20;;;;;;1741220;28;20599;-67
2023/04/25 08:23:26;;;;;;;4.18;3.85;;;11.00;97.20;;;;;;1741296;28;20238;-68
2023/04/25 08:24:18;;;;;;;4.88;4.18;;;11.00;97.20;;;;;;1741321;28;20670;-67
2023/04/25 08:25:08;;;;;;;5.38;4.25;;;11.00;97.20;;;;;;1741196;28;20203;-67
2023/04/25 08:26:00;;;;;;;4.60;4.30;;;10.90;97.20;;;;;;1741180;28;20187;-68
2023/04/25 08:26:51;;;;;;;5.05;4.65;;;10.90;97.20;;;;;;1740706;28;20217;-69
2023/04/25 08:27:44;;;;;;;6.53;4.60;;;10.90;97.20;;;;;;1740934;28;20199;-67
2023/04/25 08:28:34;;;;;;;5.43;4.95;;;10.90;97.20;;;;;;1741110;28;20207;-67
2023/04/25 08:29:28;;;;;;;5.80;5.00;;;10.90;97.20;;;;;;1741269;28;20209;-69
2023/04/25 08:30:19;;;;;;;5.43;4.85;;;10.80;97.20;;;;;;1740851;28;20203;-67
2023/04/25 08:31:10;;;;;;;5.00;4.60;;;10.80;97.20;;;;;;1741259;28;20306;-67
2023/04/25 08:32:01;;;;;;;5.18;4.68;;;10.80;97.20;;;;;;1741212;28;20234;-66
2023/04/25 08:32:53;;;;;;;5.33;4.40;;;10.80;97.20;;;;;;1741223;28;20214;-68
2023/04/25 08:33:44;;;;;;;8.20;5.15;;;10.80;97.20;;;;;;1741189;28;20234;-68
2023/04/25 08:34:36;;;;;;;4.38;4.07;;;10.80;97.20;;;;;;1741194;28;20230;-67
2023/04/25 08:35:27;;;;;;;4.85;4.43;;;10.80;97.20;;;;;;1741153;28;20246;-66
2023/04/25 08:36:20;;;;;;;11.47;5.27;;;10.80;97.20;;;;;;1740871;28;20202;-67
2023/04/25 08:37:11;;;;;;;4.80;4.40;;;10.90;97.20;;;;;;1741166;28;20210;-67
2023/04/25 08:38:02;;;;;;;5.23;4.73;;;10.90;97.20;;;;;;1741277;28;20191;-68
2023/04/25 08:38:53;;;;;;;6.68;4.43;;;10.90;97.20;;;;;;1741257;28;20203;-66
2023/04/25 08:39:46;;;;;;;4.90;4.40;;;10.90;97.20;;;;;;1741170;28;20195;-66
2023/04/25 08:40:39;;;;;;;4.68;4.28;;;10.90;97.20;;;;;;1741104;28;20223;-67
2023/04/25 08:41:31;;;;;;;4.50;4.10;;;10.90;97.20;;;;;;1741219;28;20597;-67
2023/04/25 08:42:24;;;;;;;5.30;4.68;;;10.90;97.20;;;;;;1740776;28;20203;-68
2023/04/25 08:43:18;;;;;;;4.88;4.40;;;10.90;97.20;;;;;;1741083;28;20655;-67
2023/04/25 08:44:10;;;;;;;5.25;4.75;;;10.90;97.20;;;;;;1741147;28;20202;-67
2023/04/25 08:45:03;;;;;;;6.43;5.20;;;10.80;97.20;;;;;;1741266;28;20551;-66
2023/04/25 08:45:59;;;;;;;6.07;4.70;;;10.80;97.20;;;;;;1740614;28;20203;-67
2023/04/25 08:46:53;;;;;;;5.22;4.72;;;10.80;97.20;;;;;;1740677;28;20202;-67
2023/04/25 08:47:45;;;;;;;5.10;4.57;;;10.80;97.20;;;;;;1741406;28;20199;-67
2023/04/25 08:48:37;;;;;;;4.90;4.40;;;10.80;97.20;;;;;;1741067;28;20203;-67
2023/04/25 08:49:29;;;;;;;4.70;4.40;;;10.80;97.20;;;;;;1741061;28;20214;-67
2023/04/25 08:50:23;;;;;;;4.85;4.43;;;10.80;97.20;;;;;;1741070;28;20203;-67
2023/04/25 08:51:21;;;;;;;5.03;4.63;;;10.80;97.20;;;;;;1741000;28;20257;-67
2023/04/25 08:52:14;;;;;;;6.00;4.63;;;10.80;97.20;;;;;;1741087;28;20298;-67
2023/04/25 08:53:09;;;;;;;5.68;5.20;;;10.80;97.20;;;;;;1741045;28;20229;-67
2023/04/25 08:54:09;;;;;;;5.55;4.70;;;10.70;97.20;;;;;;1741015;28;20203;-67
2023/04/25 08:55:02;;;;;;;6.05;4.60;;;10.70;97.20;;;;;;1741099;28;20207;-67
2023/04/25 08:55:55;;;;;;;5.88;5.38;;;10.70;97.20;;;;;;1741077;28;20547;-67
2023/04/25 08:56:47;;;;;;;5.43;4.90;;;10.70;97.20;;;;;;1740432;28;20230;-67
2023/04/25 08:57:42;;;;;;;4.75;4.35;;;10.70;97.20;;;;;;1741096;28;20207;-69
2023/04/25 08:58:33;;;;;;;5.72;5.13;;;10.70;97.20;;;;;;1741270;28;20314;-67
2023/04/25 08:59:25;;;;;;;5.85;5.35;;;10.70;97.20;;;;;;1741086;28;20294;-67
2023/04/25 09:00:18;;;;;;;5.28;4.82;;;10.70;97.20;;;;;;1740974;28;20195;-68
2023/04/25 09:01:10;;;;;;;6.28;5.68;;;10.70;97.20;;;;;;1741051;28;20202;-68
2023/04/25 09:02:01;;;;;;;5.32;4.93;;;10.70;97.20;;;;;;1741047;28;20674;-68
2023/04/25 09:02:53;;;;;;;5.55;4.88;;;10.70;97.20;;;;;;1741070;28;20569;-67
2023/04/25 09:03:47;;;;;;;5.75;5.25;;;10.70;97.20;;;;;;1741151;28;20207;-68
2023/04/25 09:04:37;;;;;;;5.75;5.28;;;10.70;97.20;;;;;;1740947;28;20205;-67
2023/04/25 09:05:30;;;;;;;5.60;5.10;;;10.70;97.20;;;;;;1741091;28;20210;-67
2023/04/25 09:06:22;;;;;;;5.38;4.97;;;10.60;97.20;;;;;;1740699;28;20689;-68
2023/04/25 09:07:18;;;;;;;6.00;5.40;;;10.60;97.20;;;;;;1740951;28;20199;-68
2023/04/25 09:08:09;;;;;;;5.75;5.25;;;10.50;97.20;;;;;;1741085;28;20210;-68
2023/04/25 09:09:04;;;;;;;5.50;5.00;;;10.50;97.20;;;;;;1741049;28;20201;-67
2023/04/25 09:09:55;;;;;;;7.88;5.60;;;10.50;97.20;;;;;;1741058;28;20492;-68
2023/04/25 09:10:47;;;;;;;10.27;5.90;;;10.50;97.20;;;;;;1740679;28;20223;-67
2023/04/25 09:11:38;;;;;;;6.25;5.70;;;10.50;97.20;;;;;;1740996;28;20537;-66
2023/04/25 09:12:30;;;;;;;7.80;5.38;;;10.50;97.20;;;;;;1741141;28;20262;-68
2023/04/25 09:13:26;;;;;;;6.45;4.68;;;10.50;97.20;;;;;;1741192;28;20207;-68
2023/04/25 09:14:20;;;;;;;8.35;5.00;;;10.50;97.20;;;;;;1740983;28;20250;-67
2023/04/25 09:15:12;;;;;;;6.43;5.60;;;10.40;97.20;;;;;;1740929;28;20693;-68
2023/04/25 09:16:04;;;;;;;10.90;5.47;;;10.40;97.20;;;;;;1741087;28;20677;-68
2023/04/25 09:17:00;;;;;;;7.93;5.13;;;10.40;97.20;;;;;;1740541;28;20687;-68
2023/04/25 09:17:56;;;;;;;6.13;5.25;;;10.40;97.20;;;;;;1740992;28;20199;-68
2023/04/25 09:18:49;;;;;;;5.80;5.30;;;10.40;97.20;;;;;;1741005;28;20697;-69
2023/04/25 09:19:40;;;;;;;6.90;4.53;;;10.40;97.20;;;;;;1740936;28;20209;-68
2023/04/25 09:20:31;;;;;;;5.90;5.17;;;10.40;97.20;;;;;;1740950;28;20225;-67
2023/04/25 09:21:22;;;;;;;5.30;4.80;;;10.40;97.20;;;;;;1740941;28;20441;-67
2023/04/25 09:22:21;;;;;;;5.90;5.40;;;10.40;97.20;;;;;;1740948;28;20227;-67
2023/04/25 09:23:12;;;;;;;6.03;4.88;;;10.40;97.20;;;;;;1740973;28;20199;-67
2023/04/25 09:24:05;;;;;;;4.90;4.50;;;10.40;97.20;;;;;;1740965;28;20249;-68
2023/04/25 09:24:56;;;;;;;8.45;5.15;;;10.40;97.20;;;;;;1740865;28;20476;-67
2023/04/25 09:25:48;;;;;;;5.22;4.82;;;10.40;97.20;;;;;;1740929;28;20211;-68
2023/04/25 09:26:40;;;;;;;8.65;5.70;;;10.40;97.20;;;;;;1740681;28;20199;-67
2023/04/25 09:27:31;;;;;;;4.97;4.45;;;10.40;97.20;;;;;;1740975;28;20206;-67
2023/04/25 09:28:27;;;;;;;7.03;5.68;;;10.40;97.20;;;;;;1741047;28;20195;-67
2023/04/25 09:29:17;;;;;;;5.60;5.10;;;10.50;97.20;;;;;;1740986;28;20206;-68